Time;durP1;ratioP1;P1;durP2;ratioP2;P2;SDS_P1;SDS_P2;PMS_P1;PMS_P2;Temp;Humidity;BMP_temperature;BMP_pressure;BME280_temperature;BME280_humidity;BME280_pressure;Samples;Min_cycle;Max_cycle;Signal;HPM_P1;HPM_P2
2019/04/22 00:01:19;;;;;;;4.8;3;;;;;;;12.96;33.61816;957.574;;;;
2019/04/22 00:03:47;;;;;;;6.3;3.1;;;;;;;12.93;33.31543;957.5861;;;;
2019/04/22 00:06:12;;;;;;;4;2.8;;;;;;;12.86;33.36719;957.5404;;;;
2019/04/22 00:08:37;;;;;;;5.3;2.8;;;;;;;12.93;33.5127;957.5287;;;;
2019/04/22 00:11:03;;;;;;;4.3;3;;;;;;;12.79;34.60059;957.4689;;;;
2019/04/22 00:13:28;;;;;;;6.6;3.1;;;;;;;12.83;33.74707;957.3946;;;;
2019/04/22 00:15:53;;;;;;;5.1;3.1;;;;;;;12.8;34.08008;957.4152;;;;
2019/04/22 00:18:18;;;;;;;4.9;3.3;;;;;;;12.7;35.14844;957.3775;;;;
2019/04/22 00:20:43;;;;;;;6.3;3.6;;;;;;;12.72;34.17871;957.4407;;;;
2019/04/22 00:23:10;;;;;;;4.9;3.2;;;;;;;12.65;33.90625;957.3778;;;;
2019/04/22 00:25:35;;;;;;;4.9;3.1;;;;;;;12.56;34.32715;957.2823;;;;
2019/04/22 00:28:00;;;;;;;4.2;2.9;;;;;;;12.59;32.98828;957.3145;;;;
2019/04/22 00:30:27;;;;;;;5.5;3.4;;;;;;;12.56;34.06152;957.2562;;;;
2019/04/22 00:32:55;;;;;;;4.2;2.9;;;;;;;12.65;33.38574;957.2078;;;;
2019/04/22 00:35:17;;;;;;;5.2;3.1;;;;;;;12.56;35.09082;957.23;;;;
2019/04/22 00:37:43;;;;;;;4.7;3.3;;;;;;;12.45;34.74707;957.2408;;;;
2019/04/22 00:40:08;;;;;;;3.9;3;;;;;;;12.47;35.33789;957.1689;;;;
2019/04/22 00:42:34;;;;;;;4.7;3.4;;;;;;;12.46;34.01953;957.222;;;;
2019/04/22 00:44:59;;;;;;;4.2;3.2;;;;;;;12.43;33.95898;957.2341;;;;
2019/04/22 00:47:24;;;;;;;6.5;3.5;;;;;;;12.5;34.2998;957.2181;;;;
2019/04/22 00:49:49;;;;;;;7.2;3.6;;;;;;;12.46;33.70703;957.2612;;;;
2019/04/22 00:52:26;;;;;;;5.9;3.5;;;;;;;12.42;34.02734;957.2136;;;;
2019/04/22 00:55:08;;;;;;;5.1;3.3;;;;;;;12.35;35.17773;957.1941;;;;
2019/04/22 00:57:33;;;;;;;5.8;3.3;;;;;;;12.4;34.99707;957.1545;;;;
2019/04/22 01:00:07;;;;;;;5.3;3.3;;;;;;;12.37;35.3291;957.079;;;;
2019/04/22 01:02:41;;;;;;;5.6;3.2;;;;;;;12.34;36.33203;957.0862;;;;
2019/04/22 01:05:07;;;;;;;5.3;3.4;;;;;;;12.45;35.16309;957.0226;;;;
2019/04/22 01:07:32;;;;;;;4.8;3.4;;;;;;;12.45;34.81641;957.0577;;;;
2019/04/22 01:10:03;;;;;;;5.7;3.6;;;;;;;12.44;35.75195;956.9455;;;;
2019/04/22 01:12:44;;;;;;;5.8;3.5;;;;;;;12.42;35.33398;957.0126;;;;
2019/04/22 01:15:22;;;;;;;4.8;3.5;;;;;;;12.3;36.44531;956.9414;;;;
2019/04/22 01:17:48;;;;;;;6.5;3.7;;;;;;;12.32;36.08789;956.8702;;;;
2019/04/22 01:20:13;;;;;;;6.1;3.7;;;;;;;12.25;36.24414;956.9033;;;;
2019/04/22 01:22:39;;;;;;;7.3;3.9;;;;;;;12.27;36.79004;956.892;;;;
2019/04/22 01:25:05;;;;;;;6.1;4;;;;;;;12.22;36.35742;956.8622;;;;
2019/04/22 01:27:31;;;;;;;6.6;4;;;;;;;12.25;36.62598;956.7676;;;;
2019/04/22 01:29:56;;;;;;;5.4;3.7;;;;;;;12.26;37.45801;956.7586;;;;
2019/04/22 01:32:21;;;;;;;6.3;3.9;;;;;;;12.27;37.16992;956.7361;;;;
2019/04/22 01:34:49;;;;;;;5.9;3.9;;;;;;;12.31;37.15137;956.7093;;;;
2019/04/22 01:37:14;;;;;;;6.7;3.9;;;;;;;12.26;38.50977;956.7798;;;;
2019/04/22 01:39:41;;;;;;;6.4;3.8;;;;;;;12.26;37.80469;956.7064;;;;
2019/04/22 01:42:06;;;;;;;5.1;3.6;;;;;;;12.22;38.50586;956.6228;;;;
2019/04/22 01:44:32;;;;;;;5.3;3.7;;;;;;;12.09;38.12598;956.6047;;;;
2019/04/22 01:46:57;;;;;;;8;4.1;;;;;;;12.04;39.37891;956.6279;;;;
2019/04/22 01:49:22;;;;;;;5.7;3.8;;;;;;;12.05;37.78613;956.6312;;;;
2019/04/22 01:51:47;;;;;;;5.9;4.3;;;;;;;12.04;37.91211;956.6058;;;;
2019/04/22 01:54:13;;;;;;;5.4;4;;;;;;;12;39.10938;956.5795;;;;
2019/04/22 01:56:38;;;;;;;5.5;4.1;;;;;;;11.96;39.36035;956.5136;;;;
2019/04/22 01:59:03;;;;;;;7.3;4.3;;;;;;;11.98;39.65137;956.4633;;;;
2019/04/22 02:01:46;;;;;;;6.4;4.1;;;;;;;11.97;39.08398;956.3995;;;;
2019/04/22 02:04:11;;;;;;;7.4;4.3;;;;;;;11.92;39.3457;956.4171;;;;
2019/04/22 02:06:38;;;;;;;6.7;4.2;;;;;;;11.82;39.85547;956.4053;;;;
2019/04/22 02:09:03;;;;;;;6.3;4.2;;;;;;;11.75;39.97754;956.3456;;;;
2019/04/22 02:11:29;;;;;;;7.7;3.9;;;;;;;11.79;40.2334;956.3038;;;;
2019/04/22 02:13:54;;;;;;;6.9;4.5;;;;;;;11.77;40.60156;956.3223;;;;
2019/04/22 02:16:19;;;;;;;5.5;4.1;;;;;;;11.77;40.90137;956.3052;;;;
2019/04/22 02:18:44;;;;;;;6.8;4.6;;;;;;;11.78;39.66797;956.2601;;;;
2019/04/22 02:21:09;;;;;;;6.3;4.1;;;;;;;11.84;40.31934;956.2371;;;;
2019/04/22 02:23:34;;;;;;;6.4;4;;;;;;;11.8;39.41602;956.1716;;;;
2019/04/22 02:25:59;;;;;;;8.6;4.5;;;;;;;11.82;39.80859;956.1964;;;;
2019/04/22 02:28:25;;;;;;;7.7;4.5;;;;;;;11.61;40.14746;956.2164;;;;
2019/04/22 02:30:50;;;;;;;7.9;4.4;;;;;;;11.74;39.53711;956.1465;;;;
2019/04/22 02:33:15;;;;;;;7.7;4.6;;;;;;;11.65;39.9209;956.1595;;;;
2019/04/22 02:35:40;;;;;;;8.3;4.8;;;;;;;11.71;39.37207;956.1063;;;;
2019/04/22 02:38:06;;;;;;;7.8;4.7;;;;;;;11.74;39.7793;956.1074;;;;
2019/04/22 02:40:31;;;;;;;6.3;4.4;;;;;;;11.63;39.81445;956.1225;;;;
2019/04/22 02:43:00;;;;;;;8.3;4.9;;;;;;;11.54;40.52246;956.0222;;;;
2019/04/22 02:45:25;;;;;;;6.8;4.3;;;;;;;11.6;40.34277;956.017;;;;
2019/04/22 02:47:50;;;;;;;6.6;4.6;;;;;;;11.51;40.7373;956.0129;;;;
2019/04/22 02:50:15;;;;;;;6.4;4.5;;;;;;;11.52;41.22363;956.0164;;;;
2019/04/22 02:52:41;;;;;;;7.9;4.4;;;;;;;11.55;40.01563;955.9612;;;;
2019/04/22 02:55:06;;;;;;;8.4;4.6;;;;;;;11.51;40.28809;956.008;;;;
2019/04/22 02:57:32;;;;;;;7.6;4.6;;;;;;;11.48;40.25098;955.8674;;;;
2019/04/22 02:59:57;;;;;;;6.9;4.6;;;;;;;11.51;40.54199;955.8513;;;;
2019/04/22 03:02:22;;;;;;;10.3;4.6;;;;;;;11.53;41.25879;955.7888;;;;
2019/04/22 03:04:48;;;;;;;6.9;4.3;;;;;;;11.48;41;955.7678;;;;
2019/04/22 03:07:13;;;;;;;8.1;4.6;;;;;;;11.47;40.7002;955.7597;;;;
2019/04/22 03:09:39;;;;;;;6.9;5;;;;;;;11.4;39.93262;955.7444;;;;
2019/04/22 03:12:04;;;;;;;6.2;4.5;;;;;;;11.32;40.84668;955.7656;;;;
2019/04/22 03:14:29;;;;;;;8.5;5;;;;;;;11.26;40.68066;955.7144;;;;
2019/04/22 03:16:55;;;;;;;7.4;4.9;;;;;;;11.26;41.74121;955.7364;;;;
2019/04/22 03:19:20;;;;;;;9.9;4.9;;;;;;;11.25;41.625;955.7503;;;;
2019/04/22 03:21:45;;;;;;;6.8;4.7;;;;;;;11.23;41.25293;955.653;;;;
2019/04/22 03:24:10;;;;;;;7.5;4.8;;;;;;;11.19;41.42285;955.6347;;;;
2019/04/22 03:26:36;;;;;;;5.9;4.2;;;;;;;11.18;40.88086;955.6873;;;;
2019/04/22 03:29:01;;;;;;;7.2;4.4;;;;;;;11.18;41.05371;955.6523;;;;
2019/04/22 03:31:26;;;;;;;7.9;4.6;;;;;;;11.11;41.72559;955.6509;;;;
2019/04/22 03:33:52;;;;;;;7.4;4.7;;;;;;;11.06;41.43359;955.603;;;;
2019/04/22 03:36:17;;;;;;;7.1;4.6;;;;;;;11;40.87598;955.6309;;;;
2019/04/22 03:38:45;;;;;;;9.2;4.5;;;;;;;10.91;41.75195;955.5834;;;;
2019/04/22 03:41:10;;;;;;;6.7;4.5;;;;;;;10.92;41.21387;955.534;;;;
2019/04/22 03:43:35;;;;;;;6.4;5;;;;;;;10.84;41.10254;955.537;;;;
2019/04/22 03:46:00;;;;;;;6.2;4.6;;;;;;;10.85;41.32227;955.5664;;;;
2019/04/22 03:48:25;;;;;;;7.3;4.7;;;;;;;10.82;41.37598;955.5522;;;;
2019/04/22 03:50:50;;;;;;;6.5;4.6;;;;;;;10.71;41.12305;955.5109;;;;
2019/04/22 03:53:15;;;;;;;8.1;4.7;;;;;;;10.6;42.10254;955.4389;;;;
2019/04/22 03:55:41;;;;;;;9.7;4.9;;;;;;;10.78;41.18848;955.4345;;;;
2019/04/22 03:58:06;;;;;;;8.2;4.6;;;;;;;10.86;41.58789;955.4225;;;;
2019/04/22 04:02:41;;;;;;;8.6;4.5;;;;;;;10.68;41.92676;955.44;;;;
2019/04/22 04:05:07;;;;;;;9.4;4.6;;;;;;;10.72;41.52734;955.4232;;;;
2019/04/22 04:07:32;;;;;;;8.8;4.5;;;;;;;10.71;41.61914;955.4501;;;;
2019/04/22 04:09:57;;;;;;;6.5;4.4;;;;;;;10.68;43.05566;955.431;;;;
2019/04/22 04:12:23;;;;;;;6.2;4.5;;;;;;;10.66;43.08789;955.4111;;;;
2019/04/22 04:14:48;;;;;;;6.5;4.6;;;;;;;10.65;42.99414;955.4078;;;;
2019/04/22 04:17:13;;;;;;;7.3;4.4;;;;;;;10.73;42.62207;955.3873;;;;
2019/04/22 04:19:38;;;;;;;7.6;4.9;;;;;;;10.71;43.12793;955.367;;;;
2019/04/22 04:22:04;;;;;;;8.3;5.1;;;;;;;10.69;43.45898;955.4082;;;;
2019/04/22 04:24:30;;;;;;;8.4;7;;;;;;;10.72;43.08203;955.4355;;;;
2019/04/22 04:26:56;;;;;;;8.9;6;;;;;;;10.69;44.31152;955.4694;;;;
2019/04/22 04:29:21;;;;;;;9.2;5.9;;;;;;;10.7;43.60938;955.4033;;;;
2019/04/22 04:31:48;;;;;;;8.1;4.7;;;;;;;10.57;44.21777;955.3677;;;;
2019/04/22 04:34:13;;;;;;;7.2;4.5;;;;;;;10.61;44.07227;955.3721;;;;
2019/04/22 04:36:39;;;;;;;5.3;4.4;;;;;;;10.67;44.04395;955.4192;;;;
2019/04/22 04:39:04;;;;;;;6.7;4.2;;;;;;;10.67;43.66406;955.3582;;;;
2019/04/22 04:41:29;;;;;;;5.9;4.3;;;;;;;10.64;44.4209;955.322;;;;
2019/04/22 04:43:56;;;;;;;6.1;4.6;;;;;;;10.59;44.50781;955.3354;;;;
2019/04/22 04:46:21;;;;;;;6.6;4.3;;;;;;;10.6;43.59961;955.3819;;;;
2019/04/22 04:48:47;;;;;;;6.3;4.7;;;;;;;10.65;43.97266;955.3728;;;;
2019/04/22 04:51:12;;;;;;;9.2;4.5;;;;;;;10.63;44.33887;955.3969;;;;
2019/04/22 04:53:37;;;;;;;7.6;4.5;;;;;;;10.56;45.35645;955.4508;;;;
2019/04/22 04:56:02;;;;;;;5.2;4.2;;;;;;;10.56;44.19434;955.4377;;;;
2019/04/22 04:58:27;;;;;;;6.9;4.5;;;;;;;10.65;43.92676;955.3599;;;;
2019/04/22 05:00:52;;;;;;;7.9;4.3;;;;;;;10.62;44.17676;955.3798;;;;
2019/04/22 05:03:19;;;;;;;8.4;4.5;;;;;;;10.53;43.91406;955.402;;;;
2019/04/22 05:05:44;;;;;;;8.8;4.5;;;;;;;10.49;44.49707;955.3487;;;;
2019/04/22 05:08:10;;;;;;;6.5;4.4;;;;;;;10.53;43.53516;955.4061;;;;
2019/04/22 05:10:35;;;;;;;7;4.8;;;;;;;10.56;42.82422;955.3856;;;;
2019/04/22 05:13:00;;;;;;;5.6;4.2;;;;;;;10.48;42.37891;955.4024;;;;
2019/04/22 05:15:25;;;;;;;6.1;4.1;;;;;;;10.47;43.0459;955.329;;;;
2019/04/22 05:17:51;;;;;;;8.3;4.3;;;;;;;10.6;42.37988;955.3428;;;;
2019/04/22 05:20:16;;;;;;;6.7;4.1;;;;;;;10.59;44.25391;955.3265;;;;
2019/04/22 05:23:01;;;;;;;5.3;4.3;;;;;;;10.61;43.72754;955.2939;;;;
2019/04/22 05:25:42;;;;;;;8.4;4.3;;;;;;;10.56;42.66309;955.3816;;;;
2019/04/22 05:28:08;;;;;;;6.3;4.6;;;;;;;10.52;42.45215;955.3328;;;;
2019/04/22 05:30:33;;;;;;;10.2;4.4;;;;;;;10.57;44.1377;955.4068;;;;
2019/04/22 05:32:59;;;;;;;7.1;4.4;;;;;;;10.66;43.3291;955.3769;;;;
2019/04/22 05:35:38;;;;;;;6;4.1;;;;;;;10.71;44.23242;955.3499;;;;
2019/04/22 05:38:07;;;;;;;5.4;4.2;;;;;;;10.83;43.26563;955.3602;;;;
2019/04/22 05:40:32;;;;;;;5.5;4.1;;;;;;;10.79;42.2373;955.2902;;;;
2019/04/22 05:42:57;;;;;;;5.8;3.8;;;;;;;10.82;44.6582;955.2392;;;;
2019/04/22 05:45:23;;;;;;;5.7;3.8;;;;;;;10.91;42.90625;955.3217;;;;
2019/04/22 05:47:49;;;;;;;6.1;3.8;;;;;;;10.89;43.45605;955.25;;;;
2019/04/22 05:50:15;;;;;;;6.4;4;;;;;;;10.81;42.05469;955.223;;;;
2019/04/22 05:52:41;;;;;;;6.2;4.2;;;;;;;10.82;41.70996;955.1789;;;;
2019/04/22 05:55:06;;;;;;;7.2;4.2;;;;;;;10.85;41.63281;955.1752;;;;
2019/04/22 05:57:31;;;;;;;5.4;4;;;;;;;10.95;41.97656;955.1658;;;;
2019/04/22 05:59:56;;;;;;;6.4;3.8;;;;;;;11.01;42.09668;955.226;;;;
2019/04/22 06:02:22;;;;;;;4.3;3.8;;;;;;;11.14;42.16699;955.1872;;;;
2019/04/22 06:04:47;;;;;;;5.5;3.8;;;;;;;11.14;42.33984;955.2173;;;;
2019/04/22 06:07:12;;;;;;;5.8;4.1;;;;;;;11.28;42.11133;955.178;;;;
2019/04/22 06:09:37;;;;;;;6.5;3.7;;;;;;;11.29;42.125;955.1291;;;;
2019/04/22 06:12:04;;;;;;;6.8;4.5;;;;;;;11.18;41.84863;955.1524;;;;
2019/04/22 06:14:29;;;;;;;6.5;4.2;;;;;;;11.29;41.74414;955.0417;;;;
2019/04/22 06:16:54;;;;;;;7.2;4;;;;;;;11.41;42.18164;955.0566;;;;
2019/04/22 06:19:19;;;;;;;6.3;4.5;;;;;;;11.36;41.68164;955.1002;;;;
2019/04/22 06:21:44;;;;;;;5.5;4.3;;;;;;;11.51;41.66016;955.1252;;;;
2019/04/22 06:24:09;;;;;;;6.2;4.1;;;;;;;11.55;42.43848;955.1648;;;;
2019/04/22 06:26:34;;;;;;;6.6;4.2;;;;;;;11.65;41.8252;955.2152;;;;
2019/04/22 06:28:59;;;;;;;5.8;4.3;;;;;;;11.61;41.63477;955.1677;;;;
2019/04/22 06:31:29;;;;;;;6.4;4.3;;;;;;;11.78;41.2373;955.1239;;;;
2019/04/22 06:33:54;;;;;;;5.9;4.2;;;;;;;11.89;42.97852;955.0524;;;;
2019/04/22 06:36:19;;;;;;;5.6;4.3;;;;;;;11.97;41.73926;955.0187;;;;
2019/04/22 06:38:44;;;;;;;6.3;4.3;;;;;;;12.01;42.00977;955.0972;;;;
2019/04/22 06:41:09;;;;;;;7.3;4.5;;;;;;;12.05;42.74023;955.0108;;;;
2019/04/22 06:43:34;;;;;;;6.5;4.6;;;;;;;12.2;41.50781;955.0696;;;;
2019/04/22 06:45:59;;;;;;;7.1;4.4;;;;;;;12.29;42.14063;955.008;;;;
2019/04/22 06:48:25;;;;;;;7;4.9;;;;;;;12.38;41.43262;954.9512;;;;
2019/04/22 06:50:50;;;;;;;5.8;4.5;;;;;;;12.45;41.82129;954.9565;;;;
2019/04/22 06:53:15;;;;;;;7.1;4.5;;;;;;;12.58;40.97852;954.8384;;;;
2019/04/22 06:55:40;;;;;;;5.8;4.2;;;;;;;12.64;41.63086;954.8853;;;;
2019/04/22 06:58:05;;;;;;;7.4;4.7;;;;;;;12.78;41.28516;954.8139;;;;
2019/04/22 07:00:30;;;;;;;7.1;4.6;;;;;;;12.84;41.66113;954.8386;;;;
2019/04/22 07:02:55;;;;;;;8.2;4.6;;;;;;;12.81;41.22949;954.8156;;;;
2019/04/22 07:05:21;;;;;;;6.9;4.5;;;;;;;12.89;41.49316;954.7848;;;;
2019/04/22 07:07:46;;;;;;;5.6;4.4;;;;;;;12.99;41.14453;954.7783;;;;
2019/04/22 07:10:14;;;;;;;7.8;4.5;;;;;;;13.11;41.34082;954.7271;;;;
2019/04/22 07:12:39;;;;;;;7.2;4.5;;;;;;;13.27;41.1123;954.6628;;;;
2019/04/22 07:15:05;;;;;;;5.9;4.2;;;;;;;13.36;40.85352;954.657;;;;
2019/04/22 07:17:30;;;;;;;7.7;4.3;;;;;;;13.52;41.00781;954.6184;;;;
2019/04/22 07:19:56;;;;;;;6.5;4.5;;;;;;;13.61;40.32129;954.5999;;;;
2019/04/22 07:22:21;;;;;;;6.3;4.4;;;;;;;13.75;40.00977;954.6241;;;;
2019/04/22 07:24:46;;;;;;;5.9;4.6;;;;;;;13.91;38.96875;954.4975;;;;
2019/04/22 07:27:11;;;;;;;6;3.8;;;;;;;13.92;39.35254;954.505;;;;
2019/04/22 07:29:36;;;;;;;7.1;4.3;;;;;;;13.91;39.12109;954.4969;;;;
2019/04/22 07:32:01;;;;;;;6.6;4.4;;;;;;;14.09;39.54297;954.4031;;;;
2019/04/22 07:34:26;;;;;;;7.3;4.3;;;;;;;14.09;39.125;954.4554;;;;
2019/04/22 07:36:52;;;;;;;5.1;4;;;;;;;14.16;39.03809;954.3561;;;;
2019/04/22 07:39:17;;;;;;;7.3;4.7;;;;;;;14.25;39.30176;954.3246;;;;
2019/04/22 07:41:43;;;;;;;6.1;4.3;;;;;;;14.33;39.00684;954.3638;;;;
2019/04/22 07:44:08;;;;;;;6.3;4.6;;;;;;;14.5;38.15137;954.3528;;;;
2019/04/22 07:46:33;;;;;;;6.6;4.4;;;;;;;14.6;38.8916;954.2463;;;;
2019/04/22 07:48:58;;;;;;;6.8;4.3;;;;;;;14.65;38.00098;954.25;;;;
2019/04/22 07:51:23;;;;;;;6.3;4.3;;;;;;;14.66;37.81641;954.2263;;;;
2019/04/22 07:53:49;;;;;;;7.2;4.3;;;;;;;14.78;38.4541;954.2437;;;;
2019/04/22 07:56:14;;;;;;;5.2;4;;;;;;;14.82;38.2832;954.213;;;;
2019/04/22 07:58:41;;;;;;;5.2;4;;;;;;;14.9;38.42969;954.1954;;;;
2019/04/22 08:01:06;;;;;;;5.6;4.3;;;;;;;15.02;38.37109;954.247;;;;
2019/04/22 08:03:31;;;;;;;5.8;4.4;;;;;;;15.17;38.32617;954.1819;;;;
2019/04/22 08:05:56;;;;;;;7.7;4.5;;;;;;;15.16;38.53418;954.1958;;;;
2019/04/22 08:08:22;;;;;;;8.3;4.5;;;;;;;15.29;37.64941;954.1809;;;;
2019/04/22 08:10:47;;;;;;;5.9;4.5;;;;;;;15.39;37.72852;954.1522;;;;
2019/04/22 08:13:12;;;;;;;9.8;4.4;;;;;;;15.53;37.97363;954.0616;;;;
2019/04/22 08:15:37;;;;;;;7.8;4.3;;;;;;;15.57;37.61523;954.0347;;;;
2019/04/22 08:18:02;;;;;;;7.1;4.4;;;;;;;15.57;37.55762;954.0044;;;;
2019/04/22 08:20:27;;;;;;;5.8;4.3;;;;;;;15.62;37.3877;954.0023;;;;
2019/04/22 08:22:52;;;;;;;6.9;4.3;;;;;;;15.68;37.52051;953.9913;;;;
2019/04/22 08:25:17;;;;;;;7;4.3;;;;;;;15.8;37.63574;953.9203;;;;
2019/04/22 08:27:42;;;;;;;7.2;4.1;;;;;;;15.9;37.12012;953.8872;;;;
2019/04/22 08:30:14;;;;;;;7.1;4;;;;;;;16.01;38.17773;953.8524;;;;
2019/04/22 08:32:50;;;;;;;6.4;3.7;;;;;;;16.21;36.85449;953.8762;;;;
2019/04/22 08:35:15;;;;;;;6.3;3.8;;;;;;;16.34;36.98242;953.7958;;;;
2019/04/22 08:37:40;;;;;;;6.7;3.9;;;;;;;16.5;36.20215;953.837;;;;
2019/04/22 08:40:06;;;;;;;6.2;3.9;;;;;;;16.53;35.83105;953.8161;;;;
2019/04/22 08:42:32;;;;;;;7.6;4;;;;;;;16.57;35.96289;953.855;;;;
2019/04/22 08:44:57;;;;;;;6.1;3.9;;;;;;;16.64;35.74609;953.7374;;;;
2019/04/22 08:47:22;;;;;;;6.9;3.7;;;;;;;16.74;36.07031;953.7465;;;;
2019/04/22 08:49:47;;;;;;;5.5;3.9;;;;;;;16.89;35.89648;953.7413;;;;
2019/04/22 08:52:19;;;;;;;6.2;3.7;;;;;;;16.97;35.33008;953.6661;;;;
2019/04/22 08:54:46;;;;;;;5.2;3.8;;;;;;;17.12;35.22559;953.6827;;;;
2019/04/22 08:57:11;;;;;;;8.5;3.9;;;;;;;17.15;34.18848;953.6747;;;;
2019/04/22 08:59:36;;;;;;;7;3.9;;;;;;;17.19;35.25488;953.6649;;;;
2019/04/22 09:02:01;;;;;;;6;4;;;;;;;17.37;35.68945;953.6035;;;;
2019/04/22 09:04:27;;;;;;;7.9;3.8;;;;;;;17.55;34.93262;953.5936;;;;
2019/04/22 09:06:52;;;;;;;5.8;3.9;;;;;;;17.59;34.93555;953.585;;;;
2019/04/22 09:09:17;;;;;;;6.2;3.7;;;;;;;17.59;34.12891;953.6418;;;;
2019/04/22 09:11:44;;;;;;;7.1;4;;;;;;;17.65;34.29785;953.5945;;;;
2019/04/22 09:14:09;;;;;;;6.2;4.1;;;;;;;17.65;34.71777;953.56;;;;
2019/04/22 09:16:34;;;;;;;6.8;4;;;;;;;17.73;35.21582;953.4924;;;;
2019/04/22 09:19:00;;;;;;;5.4;3.8;;;;;;;17.75;35.47559;953.521;;;;
2019/04/22 09:21:25;;;;;;;6.5;3.9;;;;;;;17.82;33.99414;953.4598;;;;
2019/04/22 09:23:51;;;;;;;5.4;3.7;;;;;;;17.95;34.23828;953.4698;;;;
2019/04/22 09:26:16;;;;;;;7.1;4;;;;;;;18.08;35.05664;953.4094;;;;
2019/04/22 09:28:42;;;;;;;7;3.7;;;;;;;18.1;34.09766;953.437;;;;
2019/04/22 09:31:07;;;;;;;4;3.6;;;;;;;18.24;33.93359;953.4272;;;;
2019/04/22 09:33:33;;;;;;;6.8;3.8;;;;;;;18.27;35.10742;953.4324;;;;
2019/04/22 09:35:58;;;;;;;9.5;3.8;;;;;;;18.38;35.0332;953.3792;;;;
2019/04/22 09:38:26;;;;;;;6.8;3.8;;;;;;;18.55;34.93066;953.3655;;;;
2019/04/22 09:40:51;;;;;;;7.9;3.9;;;;;;;18.61;33.50488;953.2926;;;;
2019/04/22 09:43:27;;;;;;;6;4;;;;;;;18.72;34.89551;953.3353;;;;
2019/04/22 09:45:53;;;;;;;6.8;4.2;;;;;;;18.85;34.29688;953.2395;;;;
2019/04/22 09:48:19;;;;;;;6.3;3.9;;;;;;;19;34.61328;953.1583;;;;
2019/04/22 09:50:44;;;;;;;5.1;3.9;;;;;;;19.09;32.51953;953.137;;;;
2019/04/22 09:53:10;;;;;;;7.2;4.3;;;;;;;19.05;33.0332;953.0809;;;;
2019/04/22 09:55:35;;;;;;;6.3;4.3;;;;;;;19.03;33.17188;953.075;;;;
2019/04/22 09:58:02;;;;;;;7.1;3.8;;;;;;;19.14;33.0625;953.025;;;;
2019/04/22 10:00:27;;;;;;;7.1;4.4;;;;;;;19.3;33.35645;953.0394;;;;
2019/04/22 10:02:52;;;;;;;5.3;3.9;;;;;;;19.44;35.48242;952.9975;;;;
2019/04/22 10:05:24;;;;;;;6;4.2;;;;;;;19.54;35.09082;952.865;;;;
2019/04/22 10:07:49;;;;;;;7.5;4;;;;;;;19.6;33.53223;952.7733;;;;
2019/04/22 10:10:14;;;;;;;6.1;3.9;;;;;;;19.73;32.86133;952.8881;;;;
2019/04/22 10:12:39;;;;;;;6.1;4.1;;;;;;;19.76;32.81641;952.8403;;;;
2019/04/22 10:15:04;;;;;;;8.5;4.1;;;;;;;19.75;32.61523;952.7488;;;;
2019/04/22 10:17:29;;;;;;;7.7;4.4;;;;;;;19.86;31.41309;952.7737;;;;
2019/04/22 10:19:54;;;;;;;5.3;3.9;;;;;;;19.82;32.79688;952.6864;;;;
2019/04/22 10:22:19;;;;;;;5.9;3.9;;;;;;;19.8;31.52539;952.6986;;;;
2019/04/22 10:24:47;;;;;;;8.8;4.1;;;;;;;19.78;31.05469;952.7447;;;;
2019/04/22 10:27:12;;;;;;;7.2;3.7;;;;;;;19.91;31.20508;952.6473;;;;
2019/04/22 10:29:37;;;;;;;6.6;3.9;;;;;;;20.19;31.53027;952.5656;;;;
2019/04/22 10:32:02;;;;;;;9.9;3.9;;;;;;;20.28;29.5127;952.5927;;;;
2019/04/22 10:34:35;;;;;;;4.7;3.7;;;;;;;20.4;30.4502;952.5717;;;;
2019/04/22 10:36:52;;;;;;;4.7;3.8;;;;;;;20.58;30.86328;952.5342;;;;
2019/04/22 10:39:17;;;;;;;6.3;3.6;;;;;;;20.82;30.72754;952.3981;;;;
2019/04/22 10:41:43;;;;;;;5.6;3.6;;;;;;;20.91;29.56641;952.4125;;;;
2019/04/22 10:44:08;;;;;;;6.5;4;;;;;;;21.02;29.08984;952.2914;;;;
2019/04/22 10:46:33;;;;;;;5.9;3.7;;;;;;;21.38;29.82129;952.3862;;;;
2019/04/22 10:48:59;;;;;;;6.1;3.2;;;;;;;21.64;30.1582;952.2509;;;;
2019/04/22 10:51:24;;;;;;;5;3.6;;;;;;;22.05;28.67383;952.192;;;;
2019/04/22 10:53:49;;;;;;;5.1;3.3;;;;;;;22.81;25.39746;952.2263;;;;
2019/04/22 10:56:14;;;;;;;6.4;3.4;;;;;;;23.63;26.14453;952.1509;;;;
2019/04/22 10:58:39;;;;;;;8.3;3.4;;;;;;;24.97;23.74805;952.1038;;;;
2019/04/22 11:01:04;;;;;;;5.9;3.6;;;;;;;25.92;21.76074;952.1122;;;;
2019/04/22 11:03:29;;;;;;;6.3;3.6;;;;;;;27.07;20.19238;952.0432;;;;
2019/04/22 11:05:54;;;;;;;5.9;3.2;;;;;;;28.16;18.57617;952.0428;;;;
2019/04/22 11:08:19;;;;;;;5.7;3.2;;;;;;;28.28;19.3125;952.0753;;;;
2019/04/22 11:10:45;;;;;;;5.4;3.3;;;;;;;28.77;18.70996;951.9864;;;;
2019/04/22 11:13:11;;;;;;;5.6;3.2;;;;;;;28.87;17.83789;952.0226;;;;
2019/04/22 11:15:36;;;;;;;5.5;3.3;;;;;;;28.52;18.09961;951.9447;;;;
2019/04/22 11:18:01;;;;;;;5.1;3;;;;;;;28.27;19.10742;951.9344;;;;
2019/04/22 11:20:26;;;;;;;5.9;2.9;;;;;;;28.56;17.5498;951.8614;;;;
2019/04/22 11:22:51;;;;;;;4.8;2.8;;;;;;;29.26;18.18945;951.8376;;;;
2019/04/22 11:25:17;;;;;;;8.1;2.8;;;;;;;28.96;17.49316;951.7059;;;;
2019/04/22 11:27:42;;;;;;;4.1;2.7;;;;;;;28.97;16.89355;951.6697;;;;
2019/04/22 11:30:08;;;;;;;5.7;2.9;;;;;;;29.84;17.78027;951.6587;;;;
2019/04/22 11:32:33;;;;;;;6.8;3.1;;;;;;;29.74;16.63477;951.6094;;;;
2019/04/22 11:34:58;;;;;;;6.5;3.2;;;;;;;29.94;16.50977;951.5734;;;;
2019/04/22 11:37:24;;;;;;;5.9;3.3;;;;;;;30.65;15.64355;951.5653;;;;
2019/04/22 11:39:49;;;;;;;5.1;3.1;;;;;;;30.58;16.35254;951.5377;;;;
2019/04/22 11:42:14;;;;;;;7.3;3.4;;;;;;;31.39;15.79004;951.5013;;;;
2019/04/22 11:44:39;;;;;;;4.2;3;;;;;;;30.72;16.01953;951.4988;;;;
2019/04/22 11:47:04;;;;;;;6.4;3.1;;;;;;;30.99;17.99414;951.3917;;;;
2019/04/22 11:49:29;;;;;;;4.7;3;;;;;;;30.54;15.78516;951.4327;;;;
2019/04/22 11:51:54;;;;;;;8.6;3;;;;;;;30.42;15.9248;951.365;;;;
2019/04/22 11:54:19;;;;;;;5.8;2.9;;;;;;;30.07;16.55078;951.3752;;;;
2019/04/22 11:56:44;;;;;;;7.4;3;;;;;;;29.91;17.02539;951.3503;;;;
2019/04/22 11:59:10;;;;;;;4.6;2.7;;;;;;;29.62;17.08691;951.4149;;;;
2019/04/22 12:01:35;;;;;;;4;2.8;;;;;;;29.72;16.81348;951.3312;;;;
2019/04/22 12:04:00;;;;;;;5.2;2.8;;;;;;;30.04;17.63184;951.3215;;;;
2019/04/22 12:06:28;;;;;;;4.5;2.7;;;;;;;29.31;16.83496;951.2958;;;;
2019/04/22 12:08:53;;;;;;;5.1;2.9;;;;;;;29.39;16.88574;951.2192;;;;
2019/04/22 12:11:21;;;;;;;7.7;2.9;;;;;;;29.42;17.21094;951.2177;;;;
2019/04/22 12:13:46;;;;;;;4.8;3.2;;;;;;;29.29;16.94238;951.151;;;;
2019/04/22 12:16:14;;;;;;;4.1;2.9;;;;;;;29.39;18.73535;951.062;;;;
2019/04/22 12:18:39;;;;;;;5.8;3;;;;;;;28.94;16.77344;951.0117;;;;
2019/04/22 12:21:05;;;;;;;4.9;2.9;;;;;;;28.37;18.00977;951.0535;;;;
2019/04/22 12:23:30;;;;;;;3.5;2.6;;;;;;;28.18;17.65527;951.0641;;;;
2019/04/22 12:25:55;;;;;;;4.5;3.1;;;;;;;27.5;18.99121;951.0645;;;;
2019/04/22 12:28:21;;;;;;;4.1;2.6;;;;;;;26.89;19.51465;950.9498;;;;
2019/04/22 12:30:47;;;;;;;5.7;2.6;;;;;;;26.93;19.66016;950.9689;;;;
2019/04/22 12:33:12;;;;;;;6.4;2.9;;;;;;;27.13;19.62109;950.9043;;;;
2019/04/22 12:35:39;;;;;;;6.7;2.9;;;;;;;26.98;21.53809;950.9064;;;;
2019/04/22 12:38:13;;;;;;;5;2.7;;;;;;;27.87;19.24609;950.8045;;;;
2019/04/22 12:40:39;;;;;;;6.5;2.7;;;;;;;28.44;18.16895;950.7142;;;;
2019/04/22 12:43:04;;;;;;;4.4;2.6;;;;;;;28.6;19.33789;950.7009;;;;
2019/04/22 12:45:29;;;;;;;6.2;2.5;;;;;;;28.82;18.07617;950.6253;;;;
2019/04/22 12:47:54;;;;;;;5;2.8;;;;;;;28.93;19.31641;950.5836;;;;
2019/04/22 12:50:19;;;;;;;6.6;2.5;;;;;;;28.93;17.63672;950.5622;;;;
2019/04/22 12:52:47;;;;;;;4.9;2.6;;;;;;;29.02;17.16016;950.4695;;;;
2019/04/22 12:55:12;;;;;;;4;2.5;;;;;;;29.62;16.38965;950.4217;;;;
2019/04/22 12:57:37;;;;;;;3.8;2.3;;;;;;;29.24;17.26465;950.4257;;;;
2019/04/22 13:00:02;;;;;;;3.5;2.4;;;;;;;29.52;18.45215;950.4338;;;;
2019/04/22 13:02:27;;;;;;;3.6;2.5;;;;;;;28.99;16.69043;950.3187;;;;
2019/04/22 13:04:52;;;;;;;5.5;2.5;;;;;;;29.57;17.5293;950.2818;;;;
2019/04/22 13:07:18;;;;;;;4.2;2.5;;;;;;;30.28;16.97949;950.2522;;;;
2019/04/22 13:09:43;;;;;;;4.2;2.3;;;;;;;29.87;15.44824;950.1566;;;;
2019/04/22 13:12:08;;;;;;;3.6;2.2;;;;;;;29.32;14.61328;950.1379;;;;
2019/04/22 13:14:33;;;;;;;2.7;2;;;;;;;29.41;15.63672;950.2667;;;;
2019/04/22 13:16:58;;;;;;;4.6;2.3;;;;;;;28.63;16.28125;950.1142;;;;
2019/04/22 13:19:23;;;;;;;3.4;2.2;;;;;;;28.86;16.57813;949.9647;;;;
2019/04/22 13:21:48;;;;;;;2.8;2.1;;;;;;;28.46;17.53418;949.9698;;;;
2019/04/22 13:24:13;;;;;;;5;2.3;;;;;;;28.17;17.90625;949.9174;;;;
2019/04/22 13:26:38;;;;;;;6.2;2.6;;;;;;;27.87;19.50977;949.9562;;;;
2019/04/22 13:29:04;;;;;;;5.4;2.5;;;;;;;28.23;17.22559;949.9066;;;;
2019/04/22 13:31:29;;;;;;;5.6;2.5;;;;;;;27.36;18.51953;949.8558;;;;
2019/04/22 13:33:54;;;;;;;5.5;2.2;;;;;;;26.37;18.93262;949.796;;;;
2019/04/22 13:36:19;;;;;;;5;2.4;;;;;;;26.37;22.67871;949.836;;;;
2019/04/22 13:38:50;;;;;;;4.7;2.3;;;;;;;26.37;21.1875;949.7692;;;;
2019/04/22 13:41:16;;;;;;;5.1;2.4;;;;;;;26.45;19.3291;949.7336;;;;
2019/04/22 13:43:41;;;;;;;5.7;2.9;;;;;;;26.07;20.13477;949.7042;;;;
2019/04/22 13:46:07;;;;;;;4.1;2.7;;;;;;;26.11;20.36328;949.7726;;;;
2019/04/22 13:48:31;;;;;;;6.9;2.8;;;;;;;27.09;19.1416;949.777;;;;
2019/04/22 13:50:57;;;;;;;5.3;2.7;;;;;;;27.79;19.88965;949.7285;;;;
2019/04/22 13:53:22;;;;;;;6.9;2.9;;;;;;;28.22;18.39941;949.747;;;;
2019/04/22 13:55:47;;;;;;;6;2.8;;;;;;;28.64;18.88379;949.728;;;;
2019/04/22 13:58:12;;;;;;;5.8;2.4;;;;;;;28.11;17.4248;949.66;;;;
2019/04/22 14:00:37;;;;;;;5.2;2.6;;;;;;;28.55;18.08887;949.6678;;;;
2019/04/22 14:05:27;;;;;;;9.6;2.8;;;;;;;27.69;17.62305;949.6529;;;;
2019/04/22 14:07:52;;;;;;;5.3;2.6;;;;;;;27.63;16.54492;949.5991;;;;
2019/04/22 14:10:18;;;;;;;5.3;2.7;;;;;;;27.47;17.18457;949.5736;;;;
2019/04/22 14:12:43;;;;;;;4.2;2.4;;;;;;;27.73;20.26953;949.4933;;;;
2019/04/22 14:15:08;;;;;;;3.2;2.4;;;;;;;28.15;16.9707;949.5045;;;;
2019/04/22 14:17:33;;;;;;;5.9;2.5;;;;;;;27.4;17.73145;949.43;;;;
2019/04/22 14:19:58;;;;;;;4.2;2.4;;;;;;;27.41;18.41406;949.4825;;;;
2019/04/22 14:22:26;;;;;;;4.3;2.7;;;;;;;27.63;18.26758;949.4344;;;;